sensor_id;sensor_type;location;lat;lon;timestamp;temperature;humidity
8563;DHT22;16392;52.508;13.468;2023-02-28T00:00:00;2.40;1.00
8563;DHT22;16392;52.508;13.468;2023-02-28T00:02:33;2.40;11.20
8563;DHT22;16392;52.508;13.468;2023-02-28T00:05:00;2.40;48.20
8563;DHT22;16392;52.508;13.468;2023-02-28T00:07:29;2.40;1.00
8563;DHT22;16392;52.508;13.468;2023-02-28T00:09:56;2.40;1.00
8563;DHT22;16392;52.508;13.468;2023-02-28T00:12:24;2.40;28.00
8563;DHT22;16392;52.508;13.468;2023-02-28T00:14:51;2.40;20.50
8563;DHT22;16392;52.508;13.468;2023-02-28T00:17:18;2.30;1.00
8563;DHT22;16392;52.508;13.468;2023-02-28T00:19:47;2.40;92.70
8563;DHT22;16392;52.508;13.468;2023-02-28T00:22:16;2.30;94.10
8563;DHT22;16392;52.508;13.468;2023-02-28T00:24:43;2.30;98.40
8563;DHT22;16392;52.508;13.468;2023-02-28T00:27:11;2.30;99.90
8563;DHT22;16392;52.508;13.468;2023-02-28T00:29:38;2.30;99.90
8563;DHT22;16392;52.508;13.468;2023-02-28T00:32:05;2.30;99.90
8563;DHT22;16392;52.508;13.468;2023-02-28T00:34:32;2.30;99.90
8563;DHT22;16392;52.508;13.468;2023-02-28T00:37:04;2.30;99.90
8563;DHT22;16392;52.508;13.468;2023-02-28T00:39:33;2.20;99.90
8563;DHT22;16392;52.508;13.468;2023-02-28T00:42:00;2.20;99.90
8563;DHT22;16392;52.508;13.468;2023-02-28T00:44:29;2.30;99.90
8563;DHT22;16392;52.508;13.468;2023-02-28T00:46:55;2.20;99.90
8563;DHT22;16392;52.508;13.468;2023-02-28T00:49:23;2.20;99.90
8563;DHT22;16392;52.508;13.468;2023-02-28T00:51:50;2.30;99.90
8563;DHT22;16392;52.508;13.468;2023-02-28T00:54:16;2.30;99.90
8563;DHT22;16392;52.508;13.468;2023-02-28T00:56:43;2.20;99.90
8563;DHT22;16392;52.508;13.468;2023-02-28T00:59:11;2.20;99.90
8563;DHT22;16392;52.508;13.468;2023-02-28T01:01:40;2.20;99.90
8563;DHT22;16392;52.508;13.468;2023-02-28T01:04:07;2.20;99.90
8563;DHT22;16392;52.508;13.468;2023-02-28T01:06:34;2.20;99.90
8563;DHT22;16392;52.508;13.468;2023-02-28T01:09:01;2.10;1.00
8563;DHT22;16392;52.508;13.468;2023-02-28T01:11:28;2.10;1.00
8563;DHT22;16392;52.508;13.468;2023-02-28T01:13:55;2.10;1.00
8563;DHT22;16392;52.508;13.468;2023-02-28T01:16:22;2.10;1.00
8563;DHT22;16392;52.508;13.468;2023-02-28T01:18:50;2.00;1.00
8563;DHT22;16392;52.508;13.468;2023-02-28T01:21:19;1.90;65.40
8563;DHT22;16392;52.508;13.468;2023-02-28T01:23:46;1.80;1.00
8563;DHT22;16392;52.508;13.468;2023-02-28T01:26:15;1.70;1.00
8563;DHT22;16392;52.508;13.468;2023-02-28T01:28:42;1.60;99.90
8563;DHT22;16392;52.508;13.468;2023-02-28T01:31:10;1.60;99.90
8563;DHT22;16392;52.508;13.468;2023-02-28T01:33:37;1.50;1.00
8563;DHT22;16392;52.508;13.468;2023-02-28T01:36:07;1.40;99.90
8563;DHT22;16392;52.508;13.468;2023-02-28T01:38:35;1.30;99.90
8563;DHT22;16392;52.508;13.468;2023-02-28T01:41:02;1.20;1.00
8563;DHT22;16392;52.508;13.468;2023-02-28T01:43:53;1.10;99.90
8563;DHT22;16392;52.508;13.468;2023-02-28T01:46:21;1.10;1.00
8563;DHT22;16392;52.508;13.468;2023-02-28T01:48:51;1.20;99.90
8563;DHT22;16392;52.508;13.468;2023-02-28T01:51:21;1.10;99.90
8563;DHT22;16392;52.508;13.468;2023-02-28T01:53:52;1.10;99.90
8563;DHT22;16392;52.508;13.468;2023-02-28T01:56:24;1.10;1.00
8563;DHT22;16392;52.508;13.468;2023-02-28T01:58:53;0.90;1.00
8563;DHT22;16392;52.508;13.468;2023-02-28T02:01:22;0.90;1.00
8563;DHT22;16392;52.508;13.468;2023-02-28T02:03:51;0.80;1.00
8563;DHT22;16392;52.508;13.468;2023-02-28T02:06:21;0.70;1.00
8563;DHT22;16392;52.508;13.468;2023-02-28T02:08:48;0.70;99.90
8563;DHT22;16392;52.508;13.468;2023-02-28T02:11:17;0.60;1.00
8563;DHT22;16392;52.508;13.468;2023-02-28T02:14:02;0.50;99.90
8563;DHT22;16392;52.508;13.468;2023-02-28T02:16:43;0.60;27.50
8563;DHT22;16392;52.508;13.468;2023-02-28T02:19:36;0.60;99.90
8563;DHT22;16392;52.508;13.468;2023-02-28T02:25:35;0.50;99.90
8563;DHT22;16392;52.508;13.468;2023-02-28T02:28:37;0.30;1.00
8563;DHT22;16392;52.508;13.468;2023-02-28T02:31:28;0.30;1.00
8563;DHT22;16392;52.508;13.468;2023-02-28T02:34:25;0.40;1.00
8563;DHT22;16392;52.508;13.468;2023-02-28T02:36:58;0.40;1.00
8563;DHT22;16392;52.508;13.468;2023-02-28T02:39:31;0.40;1.00
8563;DHT22;16392;52.508;13.468;2023-02-28T02:42:01;0.30;1.00
8563;DHT22;16392;52.508;13.468;2023-02-28T02:44:33;0.20;1.00
8563;DHT22;16392;52.508;13.468;2023-02-28T02:47:06;0.20;1.00
8563;DHT22;16392;52.508;13.468;2023-02-28T02:49:36;0.20;1.00
8563;DHT22;16392;52.508;13.468;2023-02-28T02:52:08;0.20;1.00
8563;DHT22;16392;52.508;13.468;2023-02-28T02:54:38;0.00;1.00
8563;DHT22;16392;52.508;13.468;2023-02-28T02:57:10;0.00;1.00
8563;DHT22;16392;52.508;13.468;2023-02-28T02:59:39;0.00;56.70
8563;DHT22;16392;52.508;13.468;2023-02-28T03:02:08;0.10;99.90
8563;DHT22;16392;52.508;13.468;2023-02-28T03:04:42;0.10;99.90
8563;DHT22;16392;52.508;13.468;2023-02-28T03:07:09;0.00;99.90
8563;DHT22;16392;52.508;13.468;2023-02-28T03:09:36;-0.10;99.90
8563;DHT22;16392;52.508;13.468;2023-02-28T03:12:04;-0.10;99.90
8563;DHT22;16392;52.508;13.468;2023-02-28T03:14:43;-0.20;99.90
8563;DHT22;16392;52.508;13.468;2023-02-28T03:17:34;-0.20;99.90
8563;DHT22;16392;52.508;13.468;2023-02-28T03:20:11;-0.10;99.90
8563;DHT22;16392;52.508;13.468;2023-02-28T03:22:48;-0.10;99.90
8563;DHT22;16392;52.508;13.468;2023-02-28T03:25:22;-0.10;99.90
8563;DHT22;16392;52.508;13.468;2023-02-28T03:27:59;-0.20;99.90
8563;DHT22;16392;52.508;13.468;2023-02-28T03:30:33;-0.20;99.90
8563;DHT22;16392;52.508;13.468;2023-02-28T03:33:05;-0.30;99.90
8563;DHT22;16392;52.508;13.468;2023-02-28T03:35:37;-0.30;99.90
8563;DHT22;16392;52.508;13.468;2023-02-28T03:38:09;-0.30;99.90
8563;DHT22;16392;52.508;13.468;2023-02-28T03:40:42;-0.40;99.90
8563;DHT22;16392;52.508;13.468;2023-02-28T03:43:12;-0.50;99.90
8563;DHT22;16392;52.508;13.468;2023-02-28T03:45:41;-0.60;99.90
8563;DHT22;16392;52.508;13.468;2023-02-28T03:48:13;-0.70;99.90
8563;DHT22;16392;52.508;13.468;2023-02-28T03:50:45;-0.90;99.90
8563;DHT22;16392;52.508;13.468;2023-02-28T03:53:19;-1.00;99.90
8563;DHT22;16392;52.508;13.468;2023-02-28T03:55:48;-1.10;99.90
8563;DHT22;16392;52.508;13.468;2023-02-28T03:58:20;-0.80;99.90
8563;DHT22;16392;52.508;13.468;2023-02-28T04:00:52;-0.70;99.90
8563;DHT22;16392;52.508;13.468;2023-02-28T04:03:21;-0.70;99.90
8563;DHT22;16392;52.508;13.468;2023-02-28T04:05:52;-0.60;99.90
8563;DHT22;16392;52.508;13.468;2023-02-28T04:08:19;-0.50;99.90
8563;DHT22;16392;52.508;13.468;2023-02-28T04:10:51;-0.40;99.90
8563;DHT22;16392;52.508;13.468;2023-02-28T04:13:19;-0.50;99.90
8563;DHT22;16392;52.508;13.468;2023-02-28T04:15:46;-0.50;99.90
8563;DHT22;16392;52.508;13.468;2023-02-28T04:18:12;-0.50;99.90
8563;DHT22;16392;52.508;13.468;2023-02-28T04:20:39;-0.60;99.90
8563;DHT22;16392;52.508;13.468;2023-02-28T04:23:07;-0.60;99.90
8563;DHT22;16392;52.508;13.468;2023-02-28T04:25:34;-0.50;99.90
8563;DHT22;16392;52.508;13.468;2023-02-28T04:28:00;-0.50;99.90
8563;DHT22;16392;52.508;13.468;2023-02-28T04:30:27;-0.60;99.90
8563;DHT22;16392;52.508;13.468;2023-02-28T04:32:55;-0.60;99.90
8563;DHT22;16392;52.508;13.468;2023-02-28T04:35:21;-0.70;99.90
8563;DHT22;16392;52.508;13.468;2023-02-28T04:37:48;-0.80;99.90
8563;DHT22;16392;52.508;13.468;2023-02-28T04:40:16;-0.90;99.90
8563;DHT22;16392;52.508;13.468;2023-02-28T04:42:43;-1.00;99.90
8563;DHT22;16392;52.508;13.468;2023-02-28T04:45:10;-1.10;99.90
8563;DHT22;16392;52.508;13.468;2023-02-28T04:47:37;-1.00;99.90
8563;DHT22;16392;52.508;13.468;2023-02-28T04:50:04;-1.00;99.90
8563;DHT22;16392;52.508;13.468;2023-02-28T04:52:31;-1.10;99.90
8563;DHT22;16392;52.508;13.468;2023-02-28T04:54:57;-1.10;99.90
8563;DHT22;16392;52.508;13.468;2023-02-28T04:57:25;-1.10;99.90
8563;DHT22;16392;52.508;13.468;2023-02-28T04:59:52;-1.10;99.90
8563;DHT22;16392;52.508;13.468;2023-02-28T05:02:18;-1.30;99.90
8563;DHT22;16392;52.508;13.468;2023-02-28T05:04:46;-1.40;99.90
8563;DHT22;16392;52.508;13.468;2023-02-28T05:07:13;-1.50;99.90
8563;DHT22;16392;52.508;13.468;2023-02-28T05:09:39;-1.60;99.90
8563;DHT22;16392;52.508;13.468;2023-02-28T05:12:07;-1.50;99.90
8563;DHT22;16392;52.508;13.468;2023-02-28T05:14:36;-1.50;99.90
8563;DHT22;16392;52.508;13.468;2023-02-28T05:17:02;-1.30;99.90
8563;DHT22;16392;52.508;13.468;2023-02-28T05:19:29;-1.20;99.90
8563;DHT22;16392;52.508;13.468;2023-02-28T05:21:56;-1.10;99.90
8563;DHT22;16392;52.508;13.468;2023-02-28T05:24:22;-1.10;99.90
8563;DHT22;16392;52.508;13.468;2023-02-28T05:26:50;-1.10;99.90
8563;DHT22;16392;52.508;13.468;2023-02-28T05:29:19;-1.40;99.90
8563;DHT22;16392;52.508;13.468;2023-02-28T05:31:47;-1.50;99.90
8563;DHT22;16392;52.508;13.468;2023-02-28T05:34:14;-1.50;99.90
8563;DHT22;16392;52.508;13.468;2023-02-28T05:36:41;-1.60;99.90
8563;DHT22;16392;52.508;13.468;2023-02-28T05:39:08;-1.70;99.90
8563;DHT22;16392;52.508;13.468;2023-02-28T05:41:39;-1.60;99.90
8563;DHT22;16392;52.508;13.468;2023-02-28T05:44:06;-1.50;99.90
8563;DHT22;16392;52.508;13.468;2023-02-28T05:46:33;-1.40;99.90
8563;DHT22;16392;52.508;13.468;2023-02-28T05:49:01;-1.30;99.90
8563;DHT22;16392;52.508;13.468;2023-02-28T05:51:27;-1.20;99.90
8563;DHT22;16392;52.508;13.468;2023-02-28T05:53:54;-1.10;99.90
8563;DHT22;16392;52.508;13.468;2023-02-28T05:56:22;-1.00;99.90
8563;DHT22;16392;52.508;13.468;2023-02-28T05:58:48;-0.80;99.90
8563;DHT22;16392;52.508;13.468;2023-02-28T06:01:26;-0.80;99.90
8563;DHT22;16392;52.508;13.468;2023-02-28T06:03:57;-0.80;99.90
8563;DHT22;16392;52.508;13.468;2023-02-28T06:06:25;-0.80;99.90
8563;DHT22;16392;52.508;13.468;2023-02-28T06:08:52;-0.60;99.90
8563;DHT22;16392;52.508;13.468;2023-02-28T06:11:19;-0.20;99.90
8563;DHT22;16392;52.508;13.468;2023-02-28T06:13:46;0.10;99.90
8563;DHT22;16392;52.508;13.468;2023-02-28T06:16:13;0.50;99.90
8563;DHT22;16392;52.508;13.468;2023-02-28T06:18:39;1.00;99.90
8563;DHT22;16392;52.508;13.468;2023-02-28T06:21:06;1.40;99.90
8563;DHT22;16392;52.508;13.468;2023-02-28T06:23:35;2.00;1.00
8563;DHT22;16392;52.508;13.468;2023-02-28T06:26:02;2.40;1.00
8563;DHT22;16392;52.508;13.468;2023-02-28T06:28:28;2.80;1.00
8563;DHT22;16392;52.508;13.468;2023-02-28T06:30:55;3.30;1.00
8563;DHT22;16392;52.508;13.468;2023-02-28T06:33:22;3.80;1.00
8563;DHT22;16392;52.508;13.468;2023-02-28T06:35:50;4.00;99.90
8563;DHT22;16392;52.508;13.468;2023-02-28T06:38:17;4.40;1.00
8563;DHT22;16392;52.508;13.468;2023-02-28T06:40:53;4.70;99.90
8563;DHT22;16392;52.508;13.468;2023-02-28T06:43:19;4.90;99.90
8563;DHT22;16392;52.508;13.468;2023-02-28T06:45:46;5.20;1.00
8563;DHT22;16392;52.508;13.468;2023-02-28T06:48:13;5.70;1.00
8563;DHT22;16392;52.508;13.468;2023-02-28T06:50:39;6.10;1.00
8563;DHT22;16392;52.508;13.468;2023-02-28T06:53:06;6.60;1.00
8563;DHT22;16392;52.508;13.468;2023-02-28T06:55:33;7.10;99.90
8563;DHT22;16392;52.508;13.468;2023-02-28T06:58:01;7.70;99.90
8563;DHT22;16392;52.508;13.468;2023-02-28T07:00:27;8.10;99.90
8563;DHT22;16392;52.508;13.468;2023-02-28T07:02:54;8.20;99.90
8563;DHT22;16392;52.508;13.468;2023-02-28T07:05:21;8.30;56.60
8563;DHT22;16392;52.508;13.468;2023-02-28T07:07:47;8.70;22.30
8563;DHT22;16392;52.508;13.468;2023-02-28T07:10:14;8.70;1.00
8563;DHT22;16392;52.508;13.468;2023-02-28T07:12:42;8.60;1.00
8563;DHT22;16392;52.508;13.468;2023-02-28T07:15:11;8.60;1.00
8563;DHT22;16392;52.508;13.468;2023-02-28T07:17:37;8.80;1.00
8563;DHT22;16392;52.508;13.468;2023-02-28T07:20:05;9.20;1.00
8563;DHT22;16392;52.508;13.468;2023-02-28T07:22:32;9.30;1.00
8563;DHT22;16392;52.508;13.468;2023-02-28T07:24:58;9.60;1.00
8563;DHT22;16392;52.508;13.468;2023-02-28T07:27:25;10.00;1.00
8563;DHT22;16392;52.508;13.468;2023-02-28T07:29:52;10.00;1.00
8563;DHT22;16392;52.508;13.468;2023-02-28T07:32:21;10.00;1.00
8563;DHT22;16392;52.508;13.468;2023-02-28T07:34:48;9.40;1.00
8563;DHT22;16392;52.508;13.468;2023-02-28T07:37:15;9.60;1.00
8563;DHT22;16392;52.508;13.468;2023-02-28T07:39:41;10.00;1.00
8563;DHT22;16392;52.508;13.468;2023-02-28T07:42:08;9.90;1.00
8563;DHT22;16392;52.508;13.468;2023-02-28T07:44:37;10.20;1.00
8563;DHT22;16392;52.508;13.468;2023-02-28T07:47:08;10.10;1.00
8563;DHT22;16392;52.508;13.468;2023-02-28T07:49:36;10.00;1.00
8563;DHT22;16392;52.508;13.468;2023-02-28T07:52:03;10.00;1.00
8563;DHT22;16392;52.508;13.468;2023-02-28T07:54:30;9.90;1.00
8563;DHT22;16392;52.508;13.468;2023-02-28T07:56:57;9.90;1.00
8563;DHT22;16392;52.508;13.468;2023-02-28T07:59:24;9.80;1.00
8563;DHT22;16392;52.508;13.468;2023-02-28T08:01:50;10.00;1.00
8563;DHT22;16392;52.508;13.468;2023-02-28T08:04:17;10.10;1.00
8563;DHT22;16392;52.508;13.468;2023-02-28T08:06:46;10.00;1.00
8563;DHT22;16392;52.508;13.468;2023-02-28T08:09:13;9.40;1.00
8563;DHT22;16392;52.508;13.468;2023-02-28T08:11:40;9.70;1.00
8563;DHT22;16392;52.508;13.468;2023-02-28T08:14:06;9.70;1.00
8563;DHT22;16392;52.508;13.468;2023-02-28T08:16:33;9.00;1.00
8563;DHT22;16392;52.508;13.468;2023-02-28T08:18:59;8.40;1.00
8563;DHT22;16392;52.508;13.468;2023-02-28T08:21:26;8.30;1.00
8563;DHT22;16392;52.508;13.468;2023-02-28T08:23:54;8.50;1.00
8563;DHT22;16392;52.508;13.468;2023-02-28T08:26:22;9.00;1.00
8563;DHT22;16392;52.508;13.468;2023-02-28T08:28:49;9.20;1.00
8563;DHT22;16392;52.508;13.468;2023-02-28T08:31:17;9.00;1.00
8563;DHT22;16392;52.508;13.468;2023-02-28T08:33:44;9.30;1.00
8563;DHT22;16392;52.508;13.468;2023-02-28T08:36:11;9.30;1.00
8563;DHT22;16392;52.508;13.468;2023-02-28T08:38:38;9.30;1.00
8563;DHT22;16392;52.508;13.468;2023-02-28T08:41:07;9.20;1.00
8563;DHT22;16392;52.508;13.468;2023-02-28T08:43:35;9.70;1.00
8563;DHT22;16392;52.508;13.468;2023-02-28T08:46:02;9.40;1.00
8563;DHT22;16392;52.508;13.468;2023-02-28T08:48:30;9.60;1.00
8563;DHT22;16392;52.508;13.468;2023-02-28T08:50:58;9.30;1.00
8563;DHT22;16392;52.508;13.468;2023-02-28T08:53:25;8.90;1.00
8563;DHT22;16392;52.508;13.468;2023-02-28T08:55:58;9.10;1.00
8563;DHT22;16392;52.508;13.468;2023-02-28T08:58:27;9.60;1.00
8563;DHT22;16392;52.508;13.468;2023-02-28T09:00:54;9.60;1.00
8563;DHT22;16392;52.508;13.468;2023-02-28T09:03:22;9.70;1.00
8563;DHT22;16392;52.508;13.468;2023-02-28T09:05:53;9.70;1.00
8563;DHT22;16392;52.508;13.468;2023-02-28T09:08:20;9.20;1.00
8563;DHT22;16392;52.508;13.468;2023-02-28T09:10:47;9.00;1.00
8563;DHT22;16392;52.508;13.468;2023-02-28T09:13:13;9.40;1.00
8563;DHT22;16392;52.508;13.468;2023-02-28T09:15:41;9.70;1.00
8563;DHT22;16392;52.508;13.468;2023-02-28T09:18:08;9.60;1.00
8563;DHT22;16392;52.508;13.468;2023-02-28T09:20:37;9.00;1.00
8563;DHT22;16392;52.508;13.468;2023-02-28T09:23:04;9.50;1.00
8563;DHT22;16392;52.508;13.468;2023-02-28T09:25:30;9.50;1.00
8563;DHT22;16392;52.508;13.468;2023-02-28T09:27:57;9.40;1.00
8563;DHT22;16392;52.508;13.468;2023-02-28T09:30:24;8.80;1.00
8563;DHT22;16392;52.508;13.468;2023-02-28T09:32:52;8.00;1.00
8563;DHT22;16392;52.508;13.468;2023-02-28T09:35:19;8.30;1.00
8563;DHT22;16392;52.508;13.468;2023-02-28T09:37:47;8.30;1.00
8563;DHT22;16392;52.508;13.468;2023-02-28T09:40:14;8.50;1.00
8563;DHT22;16392;52.508;13.468;2023-02-28T09:42:45;8.60;1.00
8563;DHT22;16392;52.508;13.468;2023-02-28T09:45:19;8.90;1.00
8563;DHT22;16392;52.508;13.468;2023-02-28T09:47:48;8.80;1.00
8563;DHT22;16392;52.508;13.468;2023-02-28T09:50:28;8.50;1.00
8563;DHT22;16392;52.508;13.468;2023-02-28T09:52:56;7.90;1.00
8563;DHT22;16392;52.508;13.468;2023-02-28T09:55:28;8.20;1.00
8563;DHT22;16392;52.508;13.468;2023-02-28T09:57:57;8.90;1.00
8563;DHT22;16392;52.508;13.468;2023-02-28T10:00:30;8.80;1.00
8563;DHT22;16392;52.508;13.468;2023-02-28T10:03:15;8.60;1.00
8563;DHT22;16392;52.508;13.468;2023-02-28T10:05:52;8.30;1.00
8563;DHT22;16392;52.508;13.468;2023-02-28T10:08:25;8.20;1.00
8563;DHT22;16392;52.508;13.468;2023-02-28T10:10:55;8.90;1.00
8563;DHT22;16392;52.508;13.468;2023-02-28T10:13:27;8.50;1.00
8563;DHT22;16392;52.508;13.468;2023-02-28T10:16:00;7.80;1.00
8563;DHT22;16392;52.508;13.468;2023-02-28T10:18:32;7.60;1.00
8563;DHT22;16392;52.508;13.468;2023-02-28T10:21:04;8.40;1.00
8563;DHT22;16392;52.508;13.468;2023-02-28T10:23:34;8.60;1.00
8563;DHT22;16392;52.508;13.468;2023-02-28T10:26:11;8.90;1.00
8563;DHT22;16392;52.508;13.468;2023-02-28T10:28:38;8.70;1.00
8563;DHT22;16392;52.508;13.468;2023-02-28T10:31:08;8.10;1.00
8563;DHT22;16392;52.508;13.468;2023-02-28T10:33:37;7.80;1.00
8563;DHT22;16392;52.508;13.468;2023-02-28T10:36:13;7.90;1.00
8563;DHT22;16392;52.508;13.468;2023-02-28T10:38:43;7.90;1.00
8563;DHT22;16392;52.508;13.468;2023-02-28T10:41:12;8.10;1.00
8563;DHT22;16392;52.508;13.468;2023-02-28T10:43:41;8.30;1.00
8563;DHT22;16392;52.508;13.468;2023-02-28T10:46:14;8.90;1.00
8563;DHT22;16392;52.508;13.468;2023-02-28T10:49:02;9.20;1.00
8563;DHT22;16392;52.508;13.468;2023-02-28T10:51:37;8.60;1.00
8563;DHT22;16392;52.508;13.468;2023-02-28T10:54:05;9.10;1.00
8563;DHT22;16392;52.508;13.468;2023-02-28T10:56:32;9.40;1.00
8563;DHT22;16392;52.508;13.468;2023-02-28T10:59:01;9.80;1.00
8563;DHT22;16392;52.508;13.468;2023-02-28T11:01:38;8.90;1.00
8563;DHT22;16392;52.508;13.468;2023-02-28T11:04:18;8.20;1.00
8563;DHT22;16392;52.508;13.468;2023-02-28T11:06:51;8.60;1.00
8563;DHT22;16392;52.508;13.468;2023-02-28T11:09:27;8.30;1.00
8563;DHT22;16392;52.508;13.468;2023-02-28T11:11:55;8.70;1.00
8563;DHT22;16392;52.508;13.468;2023-02-28T11:14:24;9.40;1.00
8563;DHT22;16392;52.508;13.468;2023-02-28T11:16:52;9.60;1.00
8563;DHT22;16392;52.508;13.468;2023-02-28T11:19:23;9.50;1.00
8563;DHT22;16392;52.508;13.468;2023-02-28T11:21:56;9.00;1.00
8563;DHT22;16392;52.508;13.468;2023-02-28T11:24:26;8.60;1.00
8563;DHT22;16392;52.508;13.468;2023-02-28T11:26:54;8.40;1.00
8563;DHT22;16392;52.508;13.468;2023-02-28T11:29:22;8.30;1.00
8563;DHT22;16392;52.508;13.468;2023-02-28T11:32:12;8.30;1.00
8563;DHT22;16392;52.508;13.468;2023-02-28T11:34:41;8.80;1.00
8563;DHT22;16392;52.508;13.468;2023-02-28T11:37:13;9.20;1.00
8563;DHT22;16392;52.508;13.468;2023-02-28T11:39:41;8.50;1.00
8563;DHT22;16392;52.508;13.468;2023-02-28T11:42:21;8.30;1.00
8563;DHT22;16392;52.508;13.468;2023-02-28T11:45:00;8.00;1.00
8563;DHT22;16392;52.508;13.468;2023-02-28T11:47:34;7.50;1.00
8563;DHT22;16392;52.508;13.468;2023-02-28T11:50:18;7.60;1.00
8563;DHT22;16392;52.508;13.468;2023-02-28T11:52:52;8.20;1.00
8563;DHT22;16392;52.508;13.468;2023-02-28T11:55:22;8.60;1.00
8563;DHT22;16392;52.508;13.468;2023-02-28T12:01:09;7.90;1.00
8563;DHT22;16392;52.508;13.468;2023-02-28T12:03:44;8.10;1.00
8563;DHT22;16392;52.508;13.468;2023-02-28T12:06:21;8.20;1.00
8563;DHT22;16392;52.508;13.468;2023-02-28T12:09:01;8.10;1.00
8563;DHT22;16392;52.508;13.468;2023-02-28T12:11:37;7.90;1.00
8563;DHT22;16392;52.508;13.468;2023-02-28T12:14:31;8.00;1.00
8563;DHT22;16392;52.508;13.468;2023-02-28T12:17:13;8.10;1.00
8563;DHT22;16392;52.508;13.468;2023-02-28T12:19:47;7.60;1.00
8563;DHT22;16392;52.508;13.468;2023-02-28T12:22:29;7.40;1.00
8563;DHT22;16392;52.508;13.468;2023-02-28T12:25:21;7.40;1.00
8563;DHT22;16392;52.508;13.468;2023-02-28T12:27:49;7.50;1.00
8563;DHT22;16392;52.508;13.468;2023-02-28T12:30:22;7.50;1.00
8563;DHT22;16392;52.508;13.468;2023-02-28T12:32:54;7.60;1.00
8563;DHT22;16392;52.508;13.468;2023-02-28T12:35:25;7.30;1.00
8563;DHT22;16392;52.508;13.468;2023-02-28T12:37:56;7.20;1.00
8563;DHT22;16392;52.508;13.468;2023-02-28T12:40:32;7.00;1.00
8563;DHT22;16392;52.508;13.468;2023-02-28T12:43:04;7.00;1.00
8563;DHT22;16392;52.508;13.468;2023-02-28T12:45:40;7.40;1.00
8563;DHT22;16392;52.508;13.468;2023-02-28T12:48:10;7.80;1.00
8563;DHT22;16392;52.508;13.468;2023-02-28T12:50:41;7.50;1.00
8563;DHT22;16392;52.508;13.468;2023-02-28T12:53:13;7.10;1.00
8563;DHT22;16392;52.508;13.468;2023-02-28T12:55:47;7.30;1.00
8563;DHT22;16392;52.508;13.468;2023-02-28T12:58:19;7.60;1.00
8563;DHT22;16392;52.508;13.468;2023-02-28T13:01:04;7.70;1.00
8563;DHT22;16392;52.508;13.468;2023-02-28T13:03:45;7.50;1.00
8563;DHT22;16392;52.508;13.468;2023-02-28T13:06:31;7.20;1.00
8563;DHT22;16392;52.508;13.468;2023-02-28T13:09:08;7.40;1.00
8563;DHT22;16392;52.508;13.468;2023-02-28T13:11:41;7.30;1.00
8563;DHT22;16392;52.508;13.468;2023-02-28T13:14:20;7.60;1.00
8563;DHT22;16392;52.508;13.468;2023-02-28T13:16:55;7.50;1.00
8563;DHT22;16392;52.508;13.468;2023-02-28T13:19:24;7.20;1.00
8563;DHT22;16392;52.508;13.468;2023-02-28T13:21:51;7.30;1.00
8563;DHT22;16392;52.508;13.468;2023-02-28T13:24:38;7.70;1.00
8563;DHT22;16392;52.508;13.468;2023-02-28T13:27:34;7.60;1.00
8563;DHT22;16392;52.508;13.468;2023-02-28T13:33:26;8.00;1.00
8563;DHT22;16392;52.508;13.468;2023-02-28T13:36:22;7.50;1.00
8563;DHT22;16392;52.508;13.468;2023-02-28T13:38:50;7.20;1.00
8563;DHT22;16392;52.508;13.468;2023-02-28T13:41:44;7.30;1.00
8563;DHT22;16392;52.508;13.468;2023-02-28T13:44:14;7.30;1.00
8563;DHT22;16392;52.508;13.468;2023-02-28T13:49:45;7.60;1.00
8563;DHT22;16392;52.508;13.468;2023-02-28T13:52:16;7.90;1.00
8563;DHT22;16392;52.508;13.468;2023-02-28T13:54:54;7.80;1.00
8563;DHT22;16392;52.508;13.468;2023-02-28T13:57:28;7.90;1.00
8563;DHT22;16392;52.508;13.468;2023-02-28T14:00:07;7.90;1.00
8563;DHT22;16392;52.508;13.468;2023-02-28T14:02:59;7.80;1.00
8563;DHT22;16392;52.508;13.468;2023-02-28T14:05:29;7.30;1.00
8563;DHT22;16392;52.508;13.468;2023-02-28T14:07:59;7.10;1.00
8563;DHT22;16392;52.508;13.468;2023-02-28T14:10:29;7.00;1.00
8563;DHT22;16392;52.508;13.468;2023-02-28T14:13:00;6.70;1.00
8563;DHT22;16392;52.508;13.468;2023-02-28T14:15:36;6.60;1.00
8563;DHT22;16392;52.508;13.468;2023-02-28T14:18:11;6.60;1.00
8563;DHT22;16392;52.508;13.468;2023-02-28T14:20:42;6.50;1.00
8563;DHT22;16392;52.508;13.468;2023-02-28T14:23:15;6.50;1.00
8563;DHT22;16392;52.508;13.468;2023-02-28T14:25:47;6.50;1.00
8563;DHT22;16392;52.508;13.468;2023-02-28T14:28:23;6.60;1.00
8563;DHT22;16392;52.508;13.468;2023-02-28T14:31:00;6.50;1.00
8563;DHT22;16392;52.508;13.468;2023-02-28T14:33:46;6.30;1.00
8563;DHT22;16392;52.508;13.468;2023-02-28T14:36:21;6.00;1.00
8563;DHT22;16392;52.508;13.468;2023-02-28T14:38:52;5.90;1.00
8563;DHT22;16392;52.508;13.468;2023-02-28T14:41:31;5.90;1.00
8563;DHT22;16392;52.508;13.468;2023-02-28T14:44:01;5.90;1.00
8563;DHT22;16392;52.508;13.468;2023-02-28T14:46:35;5.90;1.00
8563;DHT22;16392;52.508;13.468;2023-02-28T14:49:04;5.80;1.00
8563;DHT22;16392;52.508;13.468;2023-02-28T14:51:30;5.80;1.00
8563;DHT22;16392;52.508;13.468;2023-02-28T14:53:59;5.80;1.00
8563;DHT22;16392;52.508;13.468;2023-02-28T14:56:32;5.80;1.00
8563;DHT22;16392;52.508;13.468;2023-02-28T14:59:00;5.70;1.00
8563;DHT22;16392;52.508;13.468;2023-02-28T15:01:26;5.70;1.00
8563;DHT22;16392;52.508;13.468;2023-02-28T15:04:02;5.60;1.00
8563;DHT22;16392;52.508;13.468;2023-02-28T15:06:29;5.60;1.00
8563;DHT22;16392;52.508;13.468;2023-02-28T15:09:07;5.60;1.00
8563;DHT22;16392;52.508;13.468;2023-02-28T15:11:35;5.60;1.00
8563;DHT22;16392;52.508;13.468;2023-02-28T15:14:03;5.60;1.00
8563;DHT22;16392;52.508;13.468;2023-02-28T15:16:32;5.50;1.00
8563;DHT22;16392;52.508;13.468;2023-02-28T15:19:05;5.60;1.00
8563;DHT22;16392;52.508;13.468;2023-02-28T15:21:35;5.50;1.00
8563;DHT22;16392;52.508;13.468;2023-02-28T15:24:04;5.50;1.00
8563;DHT22;16392;52.508;13.468;2023-02-28T15:26:34;5.40;1.00
8563;DHT22;16392;52.508;13.468;2023-02-28T15:29:05;5.40;1.00
8563;DHT22;16392;52.508;13.468;2023-02-28T15:31:35;5.30;1.00
8563;DHT22;16392;52.508;13.468;2023-02-28T15:34:06;5.30;1.00
8563;DHT22;16392;52.508;13.468;2023-02-28T15:36:34;5.30;1.00
8563;DHT22;16392;52.508;13.468;2023-02-28T15:39:16;5.30;1.00
8563;DHT22;16392;52.508;13.468;2023-02-28T15:41:44;5.20;1.00
8563;DHT22;16392;52.508;13.468;2023-02-28T15:44:16;5.20;1.00
8563;DHT22;16392;52.508;13.468;2023-02-28T15:46:58;5.20;1.00
8563;DHT22;16392;52.508;13.468;2023-02-28T15:49:28;5.20;1.00
8563;DHT22;16392;52.508;13.468;2023-02-28T15:51:58;5.20;1.00
8563;DHT22;16392;52.508;13.468;2023-02-28T15:54:29;5.20;1.00
8563;DHT22;16392;52.508;13.468;2023-02-28T15:57:00;5.10;1.00
8563;DHT22;16392;52.508;13.468;2023-02-28T15:59:28;5.00;1.00
8563;DHT22;16392;52.508;13.468;2023-02-28T16:02:11;4.90;1.00
8563;DHT22;16392;52.508;13.468;2023-02-28T16:04:55;4.90;1.00
8563;DHT22;16392;52.508;13.468;2023-02-28T16:07:23;4.90;1.00
8563;DHT22;16392;52.508;13.468;2023-02-28T16:09:50;5.00;1.00
8563;DHT22;16392;52.508;13.468;2023-02-28T16:12:17;4.90;1.00
8563;DHT22;16392;52.508;13.468;2023-02-28T16:14:44;4.80;1.00
8563;DHT22;16392;52.508;13.468;2023-02-28T16:17:19;4.70;1.00
8563;DHT22;16392;52.508;13.468;2023-02-28T16:19:46;4.70;1.00
8563;DHT22;16392;52.508;13.468;2023-02-28T16:22:14;4.70;1.00
8563;DHT22;16392;52.508;13.468;2023-02-28T16:24:41;4.70;1.00
8563;DHT22;16392;52.508;13.468;2023-02-28T16:27:16;4.60;1.00